Time;durP1;ratioP1;P1;durP2;ratioP2;P2;SDS_P1;SDS_P2;PMS_P1;PMS_P2;Temp;Humidity;BMP_temperature;BMP_pressure;BME280_temperature;BME280_humidity;BME280_pressure;Samples;Min_cycle;Max_cycle;Signal;HPM_P1;HPM_P2
2022/02/25 00:01:47;;;;;;;12.65;1.70;;;;;;;3.92;77.12;101463.13;5036972;28;20169;-75
2022/02/25 00:04:12;;;;;;;8.32;1.70;;;;;;;3.82;76.92;101460.50;5053997;28;20025;-74
2022/02/25 00:06:38;;;;;;;8.82;1.60;;;;;;;3.65;75.84;101438.06;5054519;28;20464;-75
2022/02/25 00:09:05;;;;;;;9.60;1.88;;;;;;;3.74;77.21;101466.25;5035252;28;20029;-75
2022/02/25 00:11:33;;;;;;;11.43;1.80;;;;;;;3.81;75.02;101474.22;5036737;28;20039;-76
2022/02/25 00:13:59;;;;;;;13.18;1.92;;;;;;;3.76;76.31;101459.25;5040166;28;20021;-75
2022/02/25 00:16:24;;;;;;;15.50;1.98;;;;;;;3.76;75.31;101463.56;5060216;28;20059;-75
2022/02/25 00:18:50;;;;;;;12.23;2.05;;;;;;;3.81;75.81;101469.91;5037024;28;20128;-75
2022/02/25 00:21:15;;;;;;;9.85;1.98;;;;;;;3.84;75.86;101469.66;5054472;28;20039;-75
2022/02/25 00:23:41;;;;;;;8.93;1.90;;;;;;;3.71;77.33;101474.19;5054768;28;20018;-76
2022/02/25 00:26:06;;;;;;;13.52;2.00;;;;;;;3.67;76.81;101469.44;5037127;28;20039;-75
2022/02/25 00:28:31;;;;;;;13.98;1.90;;;;;;;3.61;77.44;101474.09;5054637;28;20035;-75
2022/02/25 00:30:57;;;;;;;10.98;2.08;;;;;;;3.51;77.89;101450.25;5035646;28;20025;-75
2022/02/25 00:33:22;;;;;;;14.57;2.05;;;;;;;3.71;77.22;101468.22;5036658;28;20033;-75
2022/02/25 00:35:49;;;;;;;14.23;2.17;;;;;;;3.65;78.66;101476.41;5054363;28;20470;-75
2022/02/25 00:38:16;;;;;;;9.07;1.60;;;;;;;3.58;77.32;101476.91;5054045;28;20472;-75
2022/02/25 00:40:41;;;;;;;13.13;1.83;;;;;;;3.66;76.66;101483.16;5055061;28;20538;-75
2022/02/25 00:43:06;;;;;;;15.18;1.98;;;;;;;3.80;76.08;101491.31;5054611;28;20021;-75
2022/02/25 00:45:32;;;;;;;14.25;1.98;;;;;;;3.76;76.66;101484.81;5037062;28;20113;-75
2022/02/25 00:47:57;;;;;;;15.73;2.38;;;;;;;3.78;76.01;101487.25;5053980;28;20029;-76
2022/02/25 00:50:22;;;;;;;12.30;2.00;;;;;;;3.69;76.83;101488.03;5039509;28;20044;-75
2022/02/25 00:52:48;;;;;;;21.75;2.03;;;;;;;3.77;75.99;101485.63;5036020;28;20025;-75
2022/02/25 00:55:13;;;;;;;15.52;2.10;;;;;;;3.75;76.15;101488.31;5035945;28;20031;-75
2022/02/25 00:57:45;;;;;;;12.50;1.75;;;;;;;3.71;76.90;101486.13;5053733;28;20178;-75
2022/02/25 01:00:13;;;;;;;8.00;1.60;;;;;;;3.71;76.60;101488.69;5054114;28;20106;-75
2022/02/25 01:02:38;;;;;;;11.63;1.90;;;;;;;3.83;76.03;101495.38;5054570;28;20472;-75
2022/02/25 01:05:04;;;;;;;9.50;1.70;;;;;;;3.89;76.10;101486.41;5053542;28;20056;-76
2022/02/25 01:07:29;;;;;;;9.50;1.90;;;;;;;3.82;76.70;101488.63;5037311;28;20087;-76
2022/02/25 01:09:54;;;;;;;11.27;1.98;;;;;;;3.74;77.24;101488.44;5055628;28;20022;-75
2022/02/25 01:12:20;;;;;;;11.38;1.65;;;;;;;3.69;77.04;101483.72;5053619;28;20029;-75
2022/02/25 01:14:45;;;;;;;11.25;1.88;;;;;;;3.55;77.03;101481.47;5035696;28;20021;-75
2022/02/25 01:17:10;;;;;;;14.55;1.95;;;;;;;3.52;77.85;101484.25;5036082;28;20017;-76
2022/02/25 01:19:35;;;;;;;17.45;3.08;;;;;;;3.39;78.80;101476.75;5038384;28;20029;-75
2022/02/25 01:22:02;;;;;;;10.38;2.03;;;;;;;3.41;78.17;101477.44;5064231;28;20024;-75
2022/02/25 01:24:28;;;;;;;10.73;1.83;;;;;;;3.50;77.87;101488.69;5058982;28;20136;-76
2022/02/25 01:26:53;;;;;;;14.07;1.98;;;;;;;3.48;77.39;101488.81;5035995;28;20451;-75
2022/02/25 01:29:19;;;;;;;15.73;1.88;;;;;;;3.48;78.16;101495.66;5053999;28;20085;-75
2022/02/25 01:31:45;;;;;;;12.95;1.83;;;;;;;3.48;77.87;101495.66;5053471;28;20071;-75
2022/02/25 01:34:11;;;;;;;14.90;2.10;;;;;;;3.43;78.30;101492.69;5053101;28;20113;-75
2022/02/25 01:36:36;;;;;;;16.27;2.50;;;;;;;3.41;78.24;101494.53;5053189;28;20053;-76
2022/02/25 01:39:02;;;;;;;15.02;2.08;;;;;;;3.38;79.31;101495.59;5037084;28;20486;-76
2022/02/25 01:41:30;;;;;;;20.23;2.00;;;;;;;3.34;79.17;101505.25;5035970;28;20032;-76
2022/02/25 01:44:13;;;;;;;12.70;2.33;;;;;;;3.41;79.23;101507.31;5053670;28;20078;-76
2022/02/25 01:46:39;;;;;;;10.90;1.73;;;;;;;3.42;79.20;101504.63;5054058;28;20025;-76
2022/02/25 01:49:04;;;;;;;12.60;1.85;;;;;;;3.42;78.87;101509.72;5053479;28;20083;-75
2022/02/25 01:51:29;;;;;;;16.50;1.88;;;;;;;3.44;79.38;101504.50;5035797;28;20032;-75
2022/02/25 01:53:55;;;;;;;11.50;2.33;;;;;;;3.33;80.41;101521.50;5035032;28;20537;-76
2022/02/25 01:56:20;;;;;;;16.65;2.50;;;;;;;3.39;79.52;101510.81;5052888;28;20048;-76
2022/02/25 01:58:45;;;;;;;16.08;2.03;;;;;;;3.34;80.35;101505.25;5053109;28;20111;-75
2022/02/25 02:01:12;;;;;;;15.88;2.35;;;;;;;3.39;79.86;101505.69;5052750;28;20491;-75
2022/02/25 02:03:37;;;;;;;9.73;1.70;;;;;;;3.46;79.67;101508.56;5052830;28;20028;-75
2022/02/25 02:06:06;;;;;;;10.02;2.10;;;;;;;3.53;79.43;101504.56;5037866;28;20052;-74
2022/02/25 02:08:32;;;;;;;16.15;1.90;;;;;;;3.41;79.55;101502.19;5039366;28;20037;-76
2022/02/25 02:10:57;;;;;;;13.80;2.10;;;;;;;3.49;79.63;101507.50;5057066;28;20383;-76
2022/02/25 02:13:23;;;;;;;12.50;2.13;;;;;;;3.40;79.82;101509.06;5057042;28;20067;-74
2022/02/25 02:15:49;;;;;;;12.50;1.90;;;;;;;3.56;79.20;101498.41;5056604;28;20545;-75
2022/02/25 02:18:14;;;;;;;8.77;1.55;;;;;;;3.61;78.45;101509.06;5038613;28;20055;-75
2022/02/25 02:20:39;;;;;;;16.08;1.95;;;;;;;3.50;79.25;101502.25;5055382;28;20051;-74
2022/02/25 02:23:05;;;;;;;11.18;1.80;;;;;;;3.58;79.27;101506.78;5038712;28;20021;-75
2022/02/25 02:25:30;;;;;;;16.83;2.13;;;;;;;3.56;79.17;101495.84;5056348;28;20020;-75
2022/02/25 02:30:39;;;;;;;15.60;2.25;;;;;;;3.47;79.57;101497.41;5056108;28;20067;-75
2022/02/25 02:33:04;;;;;;;14.52;1.92;;;;;;;3.44;79.33;101497.66;5057137;28;20108;-75
2022/02/25 02:35:30;;;;;;;10.40;2.03;;;;;;;3.47;78.88;101499.94;5056074;28;20079;-73
2022/02/25 02:37:55;;;;;;;14.13;2.05;;;;;;;3.37;79.67;101497.34;5039070;28;20025;-75
2022/02/25 02:40:20;;;;;;;12.80;1.80;;;;;;;3.41;78.96;101497.09;5038197;28;20092;-75
2022/02/25 02:42:46;;;;;;;13.90;2.08;;;;;;;3.47;79.03;101499.94;5056830;28;20108;-74
2022/02/25 02:45:11;;;;;;;13.48;1.50;;;;;;;3.38;80.38;101486.16;5038461;28;20545;-75
2022/02/25 02:47:37;;;;;;;13.10;1.63;;;;;;;3.38;79.32;101496.38;5055907;28;20094;-75
2022/02/25 02:50:03;;;;;;;23.92;2.38;;;;;;;3.51;78.53;101483.47;5055681;28;20025;-76
2022/02/25 02:52:28;;;;;;;18.50;2.00;;;;;;;3.54;79.38;101498.53;5038482;28;20028;-76
2022/02/25 02:54:54;;;;;;;15.38;1.92;;;;;;;3.38;79.37;101468.28;5055642;28;20028;-75
2022/02/25 02:57:20;;;;;;;14.75;2.08;;;;;;;3.47;79.47;101496.59;5058772;28;20450;-75
2022/02/25 02:59:46;;;;;;;12.50;2.00;;;;;;;3.53;79.47;101485.88;5055552;28;20031;-75
2022/02/25 03:02:11;;;;;;;15.23;2.08;;;;;;;3.52;78.44;101495.28;5050006;28;20456;-76
2022/02/25 03:04:37;;;;;;;12.30;1.85;;;;;;;3.56;78.58;101481.31;5047716;28;20084;-75
2022/02/25 03:07:02;;;;;;;14.43;1.75;;;;;;;3.51;78.85;101480.91;5047601;28;20049;-75
2022/02/25 03:09:28;;;;;;;9.45;1.77;;;;;;;3.44;78.97;101476.41;5048389;28;20048;-75
2022/02/25 03:11:54;;;;;;;12.75;2.00;;;;;;;3.55;78.37;101491.69;5047189;28;20034;-77
2022/02/25 03:14:20;;;;;;;13.55;2.72;;;;;;;3.51;78.72;101486.00;5037252;28;20036;-76
2022/02/25 03:16:45;;;;;;;15.80;2.30;;;;;;;3.50;78.77;101483.56;5034870;28;20030;-76
2022/02/25 03:19:11;;;;;;;10.35;1.88;;;;;;;3.51;78.33;101491.13;5034877;28;20381;-76
2022/02/25 03:21:36;;;;;;;11.23;2.22;;;;;;;3.55;78.54;101487.38;5038345;28;20027;-74
2022/02/25 03:24:01;;;;;;;11.25;1.77;;;;;;;3.57;78.51;101482.97;5038785;28;20017;-74
2022/02/25 03:26:26;;;;;;;15.73;2.38;;;;;;;3.51;79.16;101480.91;5033965;28;20023;-74
2022/02/25 03:28:52;;;;;;;17.35;2.13;;;;;;;3.60;78.44;101479.34;5034951;28;20388;-74
2022/02/25 03:31:17;;;;;;;10.93;2.15;;;;;;;3.54;79.36;101485.75;5034841;28;20037;-75
2022/02/25 03:33:42;;;;;;;10.82;2.30;;;;;;;3.53;78.96;101480.75;5036347;28;20025;-75
2022/02/25 03:36:07;;;;;;;10.35;1.88;;;;;;;3.58;78.89;101483.78;5035388;28;20018;-75
2022/02/25 03:38:33;;;;;;;16.77;2.13;;;;;;;3.53;79.27;101473.09;5033964;28;20029;-74
2022/02/25 03:40:58;;;;;;;17.88;2.40;;;;;;;3.56;78.83;101483.88;5032181;28;20110;-74
2022/02/25 03:43:23;;;;;;;10.07;2.20;;;;;;;3.55;80.08;101484.81;5032477;28;20030;-74
2022/02/25 03:45:49;;;;;;;14.65;2.13;;;;;;;3.60;79.05;101484.47;5032495;28;20067;-74
2022/02/25 03:48:14;;;;;;;12.35;2.10;;;;;;;3.53;78.71;101468.00;5032722;28;20026;-74
2022/02/25 03:50:39;;;;;;;16.77;2.53;;;;;;;3.56;80.05;101483.06;5032908;28;20443;-74
2022/02/25 03:53:05;;;;;;;17.67;2.30;;;;;;;3.61;79.39;101486.88;5032622;28;20104;-74
2022/02/25 03:55:30;;;;;;;14.80;2.47;;;;;;;3.70;78.66;101492.19;5032402;28;20392;-75
2022/02/25 03:57:55;;;;;;;25.10;2.78;;;;;;;3.68;78.60;101496.59;5032133;28;20452;-74
2022/02/25 04:00:21;;;;;;;11.30;1.75;;;;;;;3.60;79.14;101495.50;5032130;28;20156;-74
2022/02/25 04:02:46;;;;;;;12.65;1.92;;;;;;;3.55;79.96;101501.91;5032054;28;20024;-75
2022/02/25 04:05:12;;;;;;;15.73;2.75;;;;;;;3.51;80.29;101506.47;5041234;28;20056;-74
2022/02/25 04:07:43;;;;;;;11.50;2.20;;;;;;;3.49;80.79;101503.22;5034225;28;20039;-75
2022/02/25 04:10:10;;;;;;;17.40;2.85;;;;;;;3.53;80.02;101506.31;5053246;28;20104;-75
2022/02/25 04:12:35;;;;;;;11.20;2.15;;;;;;;3.33;80.43;101484.91;5053864;28;20500;-75
2022/02/25 04:15:01;;;;;;;16.38;2.40;;;;;;;3.42;80.68;101503.81;5035803;28;20055;-75
2022/02/25 04:17:26;;;;;;;10.40;2.25;;;;;;;3.42;80.97;101501.25;5035858;28;20212;-75
2022/02/25 04:19:51;;;;;;;11.75;2.70;;;;;;;3.32;80.92;101504.53;5035796;28;20365;-75
2022/02/25 04:22:16;;;;;;;18.65;2.58;;;;;;;3.36;81.44;101494.88;5053738;28;20533;-75
2022/02/25 04:24:42;;;;;;;17.67;2.55;;;;;;;3.20;81.96;101505.53;5053646;28;20032;-75
2022/02/25 04:27:08;;;;;;;14.43;2.50;;;;;;;3.23;83.30;101502.72;5053614;28;20029;-75
2022/02/25 04:29:33;;;;;;;12.20;2.97;;;;;;;3.09;83.19;101480.00;5053273;28;20059;-75
2022/02/25 04:31:58;;;;;;;13.57;3.05;;;;;;;3.11;84.64;101503.69;5035484;28;20021;-75
2022/02/25 04:34:24;;;;;;;13.15;2.30;;;;;;;2.99;85.62;101508.00;5053429;28;20039;-75
2022/02/25 04:36:49;;;;;;;20.00;2.33;;;;;;;3.13;85.72;101509.47;5053564;28;20243;-75
2022/02/25 04:39:15;;;;;;;12.15;2.65;;;;;;;3.19;85.93;101509.00;5053357;28;20090;-75
2022/02/25 04:41:41;;;;;;;12.88;1.90;;;;;;;3.20;86.00;101499.63;5053235;28;20032;-75
2022/02/25 04:44:06;;;;;;;18.20;2.20;;;;;;;3.12;86.26;101503.56;5035342;28;20049;-75
2022/02/25 04:46:32;;;;;;;22.08;2.47;;;;;;;3.13;86.60;101510.28;5053253;28;20429;-75
2022/02/25 04:48:57;;;;;;;14.38;2.35;;;;;;;3.11;86.87;101508.81;5053305;28;20511;-75
2022/02/25 04:51:23;;;;;;;12.38;2.30;;;;;;;3.14;87.50;101509.38;5035231;28;20480;-75
2022/02/25 04:53:49;;;;;;;15.40;2.53;;;;;;;3.14;87.08;101508.56;5053311;28;20107;-75
2022/02/25 04:56:15;;;;;;;16.55;2.40;;;;;;;3.18;87.51;101504.81;5053136;28;20076;-76
2022/02/25 04:58:41;;;;;;;22.27;2.50;;;;;;;3.13;87.67;101505.19;5053042;28;20492;-75
2022/02/25 05:01:07;;;;;;;11.75;1.88;;;;;;;3.11;87.44;101504.50;5053046;28;20039;-75
2022/02/25 05:03:33;;;;;;;13.23;2.00;;;;;;;3.16;87.30;101501.56;5053036;28;20020;-75
2022/02/25 05:05:58;;;;;;;9.93;2.08;;;;;;;3.12;88.08;101501.00;5035024;28;20488;-75
2022/02/25 05:08:24;;;;;;;14.85;2.63;;;;;;;3.14;87.48;101501.72;5035126;28;20078;-75
2022/02/25 05:10:49;;;;;;;14.07;2.33;;;;;;;3.22;87.47;101484.94;5035319;28;20032;-76
2022/02/25 05:13:14;;;;;;;15.75;2.45;;;;;;;3.29;87.99;101498.88;5053261;28;20111;-75
2022/02/25 05:21:07;;;;;;;16.35;2.80;;;;;;;3.44;88.92;101509.63;5052921;28;20080;-75
2022/02/25 05:23:33;;;;;;;16.65;2.55;;;;;;;3.40;88.05;101493.72;5052968;28;20017;-75
2022/02/25 05:25:59;;;;;;;17.55;2.72;;;;;;;3.39;87.85;101502.31;5034986;28;20025;-77
2022/02/25 05:28:24;;;;;;;16.50;2.63;;;;;;;3.45;88.42;101508.69;5053070;28;20108;-76
2022/02/25 05:30:50;;;;;;;12.55;2.40;;;;;;;3.38;89.45;101504.06;5052856;28;20112;-75
2022/02/25 05:33:15;;;;;;;18.80;2.72;;;;;;;3.47;89.59;101517.84;5052804;28;20029;-76
2022/02/25 05:35:41;;;;;;;20.85;2.58;;;;;;;3.45;89.87;101516.34;5052638;28;20414;-75
2022/02/25 05:38:06;;;;;;;20.27;2.65;;;;;;;3.53;90.64;101517.34;5052840;28;20405;-76
2022/02/25 05:40:32;;;;;;;22.42;2.83;;;;;;;3.73;90.00;101517.50;5035838;28;20036;-76
2022/02/25 05:42:57;;;;;;;16.95;3.10;;;;;;;3.86;89.57;101528.38;5056848;28;20388;-76
2022/02/25 05:45:22;;;;;;;22.23;2.72;;;;;;;3.80;90.25;101529.69;5056652;28;20032;-74
2022/02/25 05:47:48;;;;;;;14.95;2.92;;;;;;;3.84;90.51;101515.69;5056474;28;20025;-75
2022/02/25 05:50:17;;;;;;;19.08;2.88;;;;;;;4.04;89.95;101533.72;5056496;28;20027;-74
2022/02/25 05:52:44;;;;;;;17.80;3.03;;;;;;;4.05;89.30;101528.47;5038594;28;20032;-74
2022/02/25 05:55:10;;;;;;;15.35;2.60;;;;;;;4.07;89.50;101533.47;5056286;28;20116;-75
2022/02/25 05:57:36;;;;;;;17.30;3.45;;;;;;;4.06;89.54;101532.66;5038488;28;20541;-74
2022/02/25 06:00:06;;;;;;;14.55;2.90;;;;;;;4.18;88.77;101535.97;5056383;28;20084;-75
2022/02/25 06:02:32;;;;;;;18.90;2.72;;;;;;;4.24;88.91;101539.75;5038628;28;20017;-75
2022/02/25 06:04:58;;;;;;;14.52;2.83;;;;;;;4.21;89.09;101540.00;5056076;28;20477;-74
2022/02/25 06:07:23;;;;;;;15.05;2.90;;;;;;;4.23;88.17;101541.50;5056254;28;20113;-76
2022/02/25 06:09:49;;;;;;;17.30;2.28;;;;;;;4.21;89.55;101545.13;5056252;28;20025;-76
2022/02/25 06:12:14;;;;;;;21.17;3.00;;;;;;;4.20;88.78;101553.72;5038081;28;20104;-75
2022/02/25 06:14:40;;;;;;;18.67;2.83;;;;;;;4.30;89.63;101559.72;5055982;28;20029;-76
2022/02/25 06:17:05;;;;;;;18.75;2.47;;;;;;;4.30;89.64;101572.50;5056047;28;20083;-76
2022/02/25 06:19:30;;;;;;;25.60;2.97;;;;;;;4.27;88.28;101577.88;5055917;28;20127;-76
2022/02/25 06:21:55;;;;;;;10.70;2.10;;;;;;;4.32;88.66;101580.06;5055996;28;20526;-76
2022/02/25 06:24:21;;;;;;;15.00;2.42;;;;;;;4.28;87.51;101579.50;5055953;28;20112;-76
2022/02/25 06:26:46;;;;;;;17.25;2.70;;;;;;;4.28;87.28;101584.63;5055853;28;20387;-76
2022/02/25 06:29:12;;;;;;;11.80;2.60;;;;;;;4.32;87.57;101591.13;5038010;28;20082;-76
2022/02/25 06:31:37;;;;;;;12.80;2.60;;;;;;;4.32;88.14;101598.78;5055619;28;20025;-76
2022/02/25 06:34:03;;;;;;;15.70;2.58;;;;;;;4.31;87.22;101602.28;5055662;28;20494;-76
2022/02/25 06:36:28;;;;;;;15.38;2.75;;;;;;;4.39;87.66;101609.34;5037884;28;20546;-76
2022/02/25 06:38:54;;;;;;;18.52;2.50;;;;;;;4.32;87.32;101614.16;5055573;28;20078;-77
2022/02/25 06:41:19;;;;;;;15.90;2.45;;;;;;;4.34;87.10;101622.50;5055648;28;20056;-76
2022/02/25 06:43:45;;;;;;;17.50;2.30;;;;;;;4.39;87.40;101622.94;5037772;28;20025;-75
2022/02/25 06:46:11;;;;;;;17.48;2.30;;;;;;;4.47;86.63;101617.19;5055454;28;20472;-76
2022/02/25 06:48:40;;;;;;;18.10;2.70;;;;;;;4.53;86.59;101622.59;5037823;28;20025;-75
2022/02/25 06:51:05;;;;;;;10.60;2.45;;;;;;;4.52;86.01;101636.34;5055465;28;20021;-75
2022/02/25 06:53:30;;;;;;;13.77;2.55;;;;;;;4.59;84.76;101630.72;5055446;28;20031;-75
2022/02/25 06:55:56;;;;;;;16.27;2.40;;;;;;;4.62;84.95;101643.28;5037557;28;20021;-75
2022/02/25 06:58:21;;;;;;;16.35;2.60;;;;;;;4.71;85.09;101632.25;5055688;28;20468;-75
2022/02/25 07:00:47;;;;;;;13.82;2.15;;;;;;;4.77;84.78;101639.44;5037673;28;20101;-75
2022/02/25 07:03:13;;;;;;;18.40;3.10;;;;;;;4.77;85.54;101639.44;5041935;28;20516;-76
2022/02/25 07:05:41;;;;;;;10.57;2.10;;;;;;;4.84;84.27;101650.00;5046202;28;20084;-76
2022/02/25 07:08:10;;;;;;;15.95;2.33;;;;;;;4.82;84.71;101652.66;5046095;28;20028;-76
2022/02/25 07:10:37;;;;;;;13.90;2.28;;;;;;;4.81;85.42;101657.94;5064681;28;20031;-75
2022/02/25 07:13:04;;;;;;;19.25;2.85;;;;;;;4.86;84.66;101661.75;5063552;28;20452;-75
2022/02/25 07:15:30;;;;;;;12.73;2.28;;;;;;;4.87;83.78;101662.53;5063235;28;20032;-75
2022/02/25 07:17:57;;;;;;;14.00;2.85;;;;;;;4.95;83.38;101657.59;5064154;28;20029;-75
2022/02/25 07:20:23;;;;;;;15.93;2.40;;;;;;;4.97;82.96;101666.75;5046738;28;20468;-75
2022/02/25 07:22:49;;;;;;;13.20;2.67;;;;;;;4.96;82.22;101664.34;5066484;28;20024;-75
2022/02/25 07:25:15;;;;;;;27.23;3.00;;;;;;;5.14;82.92;101678.16;5067799;28;20089;-76
2022/02/25 07:27:40;;;;;;;15.02;2.28;;;;;;;5.10;83.89;101681.13;5054909;28;20048;-76
2022/02/25 07:30:06;;;;;;;25.48;3.05;;;;;;;5.10;83.20;101681.13;5054710;28;20025;-76
2022/02/25 07:32:31;;;;;;;18.23;2.60;;;;;;;5.13;84.00;101693.66;5054672;28;20040;-76
2022/02/25 07:35:11;;;;;;;18.52;2.38;;;;;;;5.17;84.51;101693.25;5068911;28;20025;-73
2022/02/25 07:37:37;;;;;;;11.15;2.15;;;;;;;5.18;83.45;101686.41;5049484;28;20043;-73
2022/02/25 07:40:04;;;;;;;18.27;2.42;;;;;;;5.26;83.40;101699.38;5049604;28;20048;-72
2022/02/25 07:42:29;;;;;;;19.92;2.83;;;;;;;5.33;84.05;101702.25;5061606;28;20021;-72
2022/02/25 07:44:55;;;;;;;24.27;2.78;;;;;;;5.33;84.78;101707.38;5062080;28;20079;-71
2022/02/25 07:47:22;;;;;;;18.17;2.30;;;;;;;5.38;84.11;101706.03;5041190;28;20021;-71
2022/02/25 07:49:48;;;;;;;16.27;2.30;;;;;;;5.50;84.13;101716.19;5059937;28;20036;-72
2022/02/25 07:52:14;;;;;;;13.73;2.35;;;;;;;5.61;82.68;101701.50;5040919;28;20081;-71
2022/02/25 07:54:39;;;;;;;23.52;3.17;;;;;;;5.93;81.96;101730.44;5056814;28;20052;-73
2022/02/25 07:57:04;;;;;;;15.25;2.92;;;;;;;5.96;81.23;101737.94;5056345;28;20029;-72
2022/02/25 07:59:30;;;;;;;20.85;3.03;;;;;;;6.01;81.50;101739.16;5056262;28;20033;-72
2022/02/25 08:01:55;;;;;;;14.55;2.72;;;;;;;6.03;81.82;101739.00;5056692;28;20029;-71
2022/02/25 08:04:21;;;;;;;22.98;2.67;;;;;;;5.89;81.93;101735.03;5037359;28;20112;-71
2022/02/25 08:06:46;;;;;;;16.95;2.63;;;;;;;6.35;77.27;101748.19;5055598;28;20057;-72
2022/02/25 08:09:12;;;;;;;14.50;2.30;;;;;;;7.28;76.13;101757.78;5055276;28;20472;-72
2022/02/25 08:11:37;;;;;;;18.88;2.80;;;;;;;9.44;66.69;101761.88;5054810;28;20029;-71
2022/02/25 08:14:03;;;;;;;16.67;2.78;;;;;;;9.48;66.88;101747.69;5037380;28;20016;-73
2022/02/25 08:16:30;;;;;;;14.50;2.55;;;;;;;7.62;73.15;101763.19;5057233;28;20101;-72
2022/02/25 08:18:55;;;;;;;16.05;2.67;;;;;;;7.50;75.47;101759.16;5042674;28;20029;-71
2022/02/25 08:21:20;;;;;;;15.68;3.05;;;;;;;8.39;70.68;101775.69;5040541;28;20036;-72
2022/02/25 08:23:46;;;;;;;14.55;3.00;;;;;;;7.51;72.97;101786.50;5040080;28;20124;-71
2022/02/25 08:26:11;;;;;;;18.38;2.70;;;;;;;7.35;74.33;101781.16;5036515;28;20064;-71
2022/02/25 08:28:37;;;;;;;17.20;2.80;;;;;;;10.51;65.51;101779.22;5054638;28;20029;-71
2022/02/25 08:31:02;;;;;;;16.48;2.35;;;;;;;11.07;61.98;101792.22;5054255;28;20031;-71
2022/02/25 08:33:28;;;;;;;12.38;2.85;;;;;;;9.95;64.20;101793.63;5036341;28;20075;-70
2022/02/25 08:35:53;;;;;;;11.32;2.63;;;;;;;9.47;65.42;101798.50;5036165;28;20032;-71
2022/02/25 08:38:18;;;;;;;14.65;2.40;;;;;;;8.54;66.46;101797.41;5039214;28;20387;-71
2022/02/25 08:40:45;;;;;;;15.88;3.03;;;;;;;8.54;70.58;101802.56;5056614;28;20036;-72
2022/02/25 08:43:10;;;;;;;13.68;2.80;;;;;;;7.60;71.99;101805.44;5054583;28;20027;-71
2022/02/25 08:45:40;;;;;;;17.00;2.55;;;;;;;7.36;73.80;101800.75;5054123;28;20108;-71
2022/02/25 08:48:05;;;;;;;13.98;2.67;;;;;;;7.10;72.84;101806.50;5035936;28;20055;-71
2022/02/25 08:50:31;;;;;;;13.10;2.85;;;;;;;7.60;71.68;101806.22;5053696;28;20056;-71
2022/02/25 08:52:56;;;;;;;13.02;2.70;;;;;;;7.15;75.57;101813.81;5053517;28;20044;-71
2022/02/25 08:55:23;;;;;;;22.33;3.00;;;;;;;6.89;75.80;101824.69;5035561;28;20021;-71
2022/02/25 08:57:49;;;;;;;14.75;2.58;;;;;;;6.61;77.08;101828.88;5053721;28;20033;-71
2022/02/25 09:00:21;;;;;;;16.98;2.80;;;;;;;6.46;79.42;101828.47;5053601;28;20516;-71
2022/02/25 09:02:47;;;;;;;17.10;3.43;;;;;;;6.31;78.11;101830.63;5053533;28;20049;-72
2022/02/25 09:05:13;;;;;;;19.75;2.80;;;;;;;6.39;79.06;101849.69;5053105;28;20057;-72
2022/02/25 09:07:39;;;;;;;19.00;2.60;;;;;;;6.37;79.88;101842.13;5035439;28;20078;-70
2022/02/25 09:10:06;;;;;;;19.40;2.40;;;;;;;6.29;79.39;101850.47;5053742;28;20024;-70
2022/02/25 09:12:33;;;;;;;20.13;2.78;;;;;;;6.22;79.49;101858.84;5053169;28;20029;-71
2022/02/25 09:14:58;;;;;;;25.27;3.20;;;;;;;6.31;79.74;101866.56;5035301;28;20070;-71
2022/02/25 09:17:25;;;;;;;16.75;2.38;;;;;;;6.23;80.23;101870.75;5057391;28;20466;-71
2022/02/25 09:19:51;;;;;;;17.80;2.70;;;;;;;6.31;79.90;101868.31;5039546;28;20032;-71
2022/02/25 09:22:16;;;;;;;16.75;2.80;;;;;;;6.17;80.24;101873.84;5039313;28;20048;-71
2022/02/25 09:24:41;;;;;;;23.88;2.53;;;;;;;6.35;78.80;101867.09;5039330;28;20025;-71
2022/02/25 09:27:07;;;;;;;12.73;2.63;;;;;;;6.85;77.13;101877.31;5057236;28;20036;-71
2022/02/25 09:29:32;;;;;;;20.58;3.60;;;;;;;7.05;77.58;101874.72;5056971;28;20384;-71
2022/02/25 09:31:57;;;;;;;19.92;2.30;;;;;;;6.83;78.85;101879.19;5056929;28;20029;-71
2022/02/25 09:34:23;;;;;;;20.10;2.67;;;;;;;6.82;77.45;101887.03;5056674;28;20029;-71
2022/02/25 09:36:48;;;;;;;26.05;2.90;;;;;;;6.77;77.22;101880.53;5038811;28;20387;-71
2022/02/25 09:39:14;;;;;;;17.42;2.55;;;;;;;6.76;78.21;101875.53;5056537;28;20041;-72
2022/02/25 09:41:41;;;;;;;18.48;2.60;;;;;;;7.36;77.51;101886.44;5038792;28;20029;-72
2022/02/25 09:44:07;;;;;;;18.48;2.80;;;;;;;7.15;76.70;101896.09;5037360;28;20395;-73
2022/02/25 09:46:33;;;;;;;23.10;3.13;;;;;;;6.93;77.94;101892.88;5056219;28;20490;-71
2022/02/25 09:48:59;;;;;;;19.00;2.70;;;;;;;6.83;78.12;101902.31;5056506;28;20545;-71
2022/02/25 09:51:25;;;;;;;19.75;3.05;;;;;;;6.44;80.79;101894.56;5038676;28;20112;-71
2022/02/25 09:53:50;;;;;;;17.92;2.92;;;;;;;6.25;82.12;101895.34;5056992;28;20107;-71
2022/02/25 09:56:16;;;;;;;19.50;2.90;;;;;;;6.13;81.95;101913.50;5056576;28;20447;-72
2022/02/25 09:58:42;;;;;;;14.68;2.30;;;;;;;5.96;82.28;101912.41;5038159;28;20021;-70
2022/02/25 10:01:11;;;;;;;11.40;2.35;;;;;;;5.86;82.45;101910.53;5038682;28;20384;-71
2022/02/25 10:03:36;;;;;;;17.38;3.10;;;;;;;5.88;83.33;101929.19;5038932;28;20452;-71
2022/02/25 10:06:04;;;;;;;20.95;3.25;;;;;;;5.78;84.70;101936.06;5038612;28;20091;-71
2022/02/25 10:08:30;;;;;;;16.83;3.38;;;;;;;5.58;85.03;101945.38;5039477;28;20021;-71
2022/02/25 10:10:57;;;;;;;15.73;3.38;;;;;;;5.50;86.99;101936.69;5058808;28;20036;-71
2022/02/25 10:13:25;;;;;;;21.25;3.85;;;;;;;5.42;86.96;101966.31;5056252;28;20032;-72
2022/02/25 10:15:57;;;;;;;18.60;3.08;;;;;;;4.93;86.88;101954.06;5038411;28;20463;-71
2022/02/25 10:18:29;;;;;;;21.85;2.88;;;;;;;4.88;88.61;101949.28;5056394;28;20104;-70
2022/02/25 10:21:08;;;;;;;24.27;3.70;;;;;;;5.03;89.47;101960.06;5056881;28;20029;-71
2022/02/25 10:23:39;;;;;;;11.77;2.35;;;;;;;5.25;88.54;101971.97;5039451;28;20024;-70
2022/02/25 10:26:27;;;;;;;17.33;3.03;;;;;;;5.33;88.37;101967.06;5037759;28;20029;-71
2022/02/25 10:28:54;;;;;;;17.63;3.28;;;;;;;5.32;87.98;101982.53;5056174;28;20021;-70
2022/02/25 10:31:29;;;;;;;24.90;3.33;;;;;;;5.43;88.70;101982.50;5055577;28;20029;-71
2022/02/25 10:34:12;;;;;;;18.48;3.10;;;;;;;5.57;87.52;101997.59;5037382;28;20036;-72
2022/02/25 10:36:50;;;;;;;12.68;3.10;;;;;;;5.57;87.94;101999.34;5038062;28;20033;-71
2022/02/25 10:39:29;;;;;;;20.40;2.90;;;;;;;5.61;87.65;102004.13;5059539;28;20020;-71
2022/02/25 10:42:02;;;;;;;19.20;3.08;;;;;;;5.66;86.94;102008.84;5056130;28;20445;-71
2022/02/25 10:44:50;;;;;;;17.77;3.30;;;;;;;5.54;87.00;102017.53;5038208;28;20021;-71
2022/02/25 10:47:25;;;;;;;18.75;3.00;;;;;;;5.51;86.83;102012.66;5038556;28;20033;-71
2022/02/25 10:50:01;;;;;;;20.27;2.65;;;;;;;5.45;86.36;102018.28;5056373;28;20032;-71
2022/02/25 10:52:34;;;;;;;26.50;4.68;;;;;;;5.49;86.52;102024.78;5038080;28;20032;-71
2022/02/25 10:55:03;;;;;;;26.85;3.35;;;;;;;5.59;86.02;102031.63;5055815;28;20021;-71
2022/02/25 10:57:28;;;;;;;19.52;2.38;;;;;;;5.78;85.54;102033.53;5055766;28;20025;-72
2022/02/25 10:59:56;;;;;;;24.05;3.05;;;;;;;7.22;82.52;102028.28;5037504;28;20102;-72
2022/02/25 11:02:26;;;;;;;17.55;3.15;;;;;;;8.98;76.68;102039.78;5037738;28;20051;-71
2022/02/25 11:05:11;;;;;;;18.60;3.05;;;;;;;9.66;72.08;102046.97;5038804;28;20408;-73
2022/02/25 11:07:44;;;;;;;17.08;3.58;;;;;;;8.03;78.15;102051.94;5056221;28;20025;-71
2022/02/25 11:10:11;;;;;;;23.52;2.92;;;;;;;7.74;80.14;102054.56;5056519;28;20456;-72
2022/02/25 11:12:39;;;;;;;16.88;2.85;;;;;;;8.82;77.45;102055.88;5037446;28;20028;-71
2022/02/25 11:15:07;;;;;;;18.85;3.28;;;;;;;10.07;71.99;102042.91;5055361;28;20025;-71
2022/02/25 11:17:35;;;;;;;22.92;3.60;;;;;;;9.78;74.21;102063.03;5055374;28;20055;-71
2022/02/25 11:20:02;;;;;;;19.33;2.78;;;;;;;9.21;76.30;102060.81;5055159;28;20020;-72
2022/02/25 11:22:29;;;;;;;19.52;3.55;;;;;;;8.56;78.53;102069.41;5055190;28;20029;-72
2022/02/25 11:24:57;;;;;;;24.48;4.07;;;;;;;8.05;79.97;102069.81;5037976;28;20025;-71
2022/02/25 11:27:22;;;;;;;20.33;3.15;;;;;;;7.54;80.67;102073.50;5036793;28;20499;-72
2022/02/25 11:29:59;;;;;;;23.73;3.42;;;;;;;7.17;81.68;102077.53;5054905;28;20021;-72
2022/02/25 11:32:33;;;;;;;26.95;3.47;;;;;;;7.04;84.21;102087.25;5054970;28;20132;-71